createdAt,value
2022-12-12T00:00:44.071Z,3.32
2022-12-12T00:01:44.581Z,3.32
2022-12-12T00:02:44.152Z,3.32
2022-12-12T00:03:44.699Z,3.31
2022-12-12T00:04:43.821Z,3.31
2022-12-12T00:05:45.475Z,3.31
2022-12-12T00:06:44.524Z,3.30
2022-12-12T00:07:44.015Z,3.29
2022-12-12T00:08:44.032Z,3.30
2022-12-12T00:09:44.480Z,3.30
2022-12-12T00:10:44.998Z,3.29
2022-12-12T00:11:44.454Z,3.28
2022-12-12T00:12:44.501Z,3.27
2022-12-12T00:13:44.422Z,3.28
2022-12-12T00:14:43.903Z,3.28
2022-12-12T00:15:43.987Z,3.27
2022-12-12T00:16:44.421Z,3.28
2022-12-12T00:17:43.883Z,3.26
2022-12-12T00:18:43.880Z,3.26
2022-12-12T00:19:43.894Z,3.25
2022-12-12T00:20:43.861Z,3.26
2022-12-12T00:21:43.834Z,3.25
2022-12-12T00:22:44.443Z,3.26
2022-12-12T00:23:43.824Z,3.26
2022-12-12T00:24:43.370Z,3.26
2022-12-12T00:25:44.370Z,3.25
2022-12-12T00:26:44.334Z,3.24
2022-12-12T00:27:44.304Z,3.23
2022-12-12T00:28:44.326Z,3.22
2022-12-12T00:29:43.776Z,3.22
2022-12-12T00:30:44.327Z,3.20
2022-12-12T00:31:43.764Z,3.19
2022-12-12T00:32:44.254Z,3.20
2022-12-12T00:33:44.233Z,3.17
2022-12-12T00:34:44.824Z,3.16
2022-12-12T00:35:43.743Z,3.16
2022-12-12T00:36:43.685Z,3.16
2022-12-12T00:37:44.207Z,3.15
2022-12-12T00:38:43.497Z,3.14
2022-12-12T00:39:43.713Z,3.14
2022-12-12T00:40:43.766Z,3.15
2022-12-12T00:41:44.158Z,3.16
2022-12-12T00:42:44.149Z,3.18
2022-12-12T00:43:44.159Z,3.19
2022-12-12T00:44:44.112Z,3.21
2022-12-12T00:45:43.657Z,3.22
2022-12-12T00:46:43.704Z,3.23
2022-12-12T00:47:44.087Z,3.24
2022-12-12T00:48:44.100Z,3.26
2022-12-12T00:49:44.089Z,3.26
2022-12-12T00:50:43.548Z,3.27
2022-12-12T00:51:43.547Z,3.27
2022-12-12T00:52:44.068Z,3.27
2022-12-12T00:53:43.508Z,3.25
2022-12-12T00:54:43.499Z,3.26
2022-12-12T00:55:43.515Z,3.27
2022-12-12T00:56:43.514Z,3.27
2022-12-12T00:57:43.541Z,3.28
2022-12-12T00:58:44.010Z,3.28
2022-12-12T00:59:43.954Z,3.27
2022-12-12T01:00:44.487Z,3.29
2022-12-12T01:01:43.972Z,3.30
2022-12-12T01:02:42.532Z,3.30
2022-12-12T01:03:43.856Z,3.31
2022-12-12T01:04:44.430Z,3.32
2022-12-12T01:05:44.402Z,3.34
2022-12-12T01:06:43.881Z,3.35
2022-12-12T01:07:45.331Z,3.37
2022-12-12T01:08:43.480Z,3.38
2022-12-12T01:09:45.265Z,3.39
2022-12-12T01:10:43.869Z,3.40
2022-12-12T01:11:43.823Z,3.40
2022-12-12T01:12:43.851Z,3.41
2022-12-12T01:13:43.352Z,3.43
2022-12-12T01:14:42.549Z,3.42
2022-12-12T01:15:43.350Z,3.40
2022-12-12T01:16:43.803Z,3.40
2022-12-12T01:17:43.300Z,3.39
2022-12-12T01:18:43.721Z,3.38
2022-12-12T01:19:43.271Z,3.37
2022-12-12T01:20:43.279Z,3.37
2022-12-12T01:21:43.232Z,3.37
2022-12-12T01:22:43.302Z,3.38
2022-12-12T01:23:43.236Z,3.40
2022-12-12T01:24:43.707Z,3.41
2022-12-12T01:25:43.193Z,3.41
2022-12-12T01:26:43.204Z,3.42
2022-12-12T01:27:43.234Z,3.43
2022-12-12T01:28:43.681Z,3.44
2022-12-12T01:29:43.636Z,3.45
2022-12-12T01:30:43.650Z,3.45
2022-12-12T01:31:43.175Z,3.46
2022-12-12T01:32:43.612Z,3.46
2022-12-12T01:33:43.169Z,3.46
2022-12-12T01:34:43.177Z,3.46
2022-12-12T01:35:43.563Z,3.46
2022-12-12T01:36:43.093Z,3.46
2022-12-12T01:37:44.467Z,3.46
2022-12-12T01:38:43.034Z,3.46
2022-12-12T01:39:43.088Z,3.46
2022-12-12T01:40:43.602Z,3.47
2022-12-12T01:41:43.014Z,3.48
2022-12-12T01:42:43.486Z,3.47
2022-12-12T01:43:43.546Z,3.47
2022-12-12T01:44:42.119Z,3.49
2022-12-12T01:45:42.964Z,3.49
2022-12-12T01:46:44.080Z,3.49
2022-12-12T01:47:43.455Z,3.48
2022-12-12T01:48:42.010Z,3.46
2022-12-12T01:49:42.984Z,3.44
2022-12-12T01:50:41.985Z,3.41
2022-12-12T01:51:42.987Z,3.38
2022-12-12T01:52:42.946Z,3.35
2022-12-12T01:53:43.400Z,3.33
2022-12-12T01:54:42.863Z,3.30
2022-12-12T01:55:43.377Z,3.29
2022-12-12T01:56:43.385Z,3.28
2022-12-12T01:57:41.918Z,3.27
2022-12-12T01:58:42.873Z,3.27
2022-12-12T01:59:43.358Z,3.27
2022-12-12T02:00:43.374Z,3.27
2022-12-12T02:01:43.323Z,3.27
2022-12-12T02:02:42.787Z,3.28
2022-12-12T02:03:41.877Z,3.28
2022-12-12T02:04:43.787Z,3.27
2022-12-12T02:05:42.767Z,3.28
2022-12-12T02:06:42.756Z,3.27
2022-12-12T02:07:41.838Z,3.28
2022-12-12T02:08:42.754Z,3.28
2022-12-12T02:09:41.852Z,3.29
2022-12-12T02:10:43.199Z,3.28
2022-12-12T02:11:42.697Z,3.27
2022-12-12T02:12:41.757Z,3.27
2022-12-12T02:13:43.208Z,3.27
2022-12-12T02:14:41.738Z,3.27
2022-12-12T02:15:43.199Z,3.27
2022-12-12T02:16:41.720Z,3.28
2022-12-12T02:17:43.158Z,3.28
2022-12-12T02:18:43.118Z,3.29
2022-12-12T02:19:43.120Z,3.29
2022-12-12T02:20:41.669Z,3.31
2022-12-12T02:21:42.644Z,3.32
2022-12-12T02:22:42.623Z,3.32
2022-12-12T02:23:43.111Z,3.30
2022-12-12T02:24:43.049Z,3.28
2022-12-12T02:25:41.651Z,3.26
2022-12-12T02:26:41.608Z,3.23
2022-12-12T02:27:41.634Z,3.20
2022-12-12T02:28:41.589Z,3.18
2022-12-12T02:29:42.999Z,3.16
2022-12-12T02:30:43.049Z,3.15
2022-12-12T02:31:41.649Z,3.14
2022-12-12T02:32:42.979Z,3.13
2022-12-12T02:33:43.072Z,3.14
2022-12-12T02:34:41.564Z,3.14
2022-12-12T02:35:41.580Z,3.14
2022-12-12T02:36:41.502Z,3.14
2022-12-12T02:37:42.443Z,3.14
2022-12-12T02:38:41.513Z,3.15
2022-12-12T02:39:41.501Z,3.15
2022-12-12T02:40:42.901Z,3.16
2022-12-12T02:41:41.488Z,3.17
2022-12-12T02:42:43.376Z,3.19
2022-12-12T02:43:41.444Z,3.19
2022-12-12T02:44:42.366Z,3.19
2022-12-12T02:45:42.372Z,3.19
2022-12-12T02:46:41.498Z,3.20
2022-12-12T02:47:42.855Z,3.19
2022-12-12T02:48:43.335Z,3.19
2022-12-12T02:49:41.377Z,3.18
2022-12-12T02:50:41.364Z,3.18
2022-12-12T02:51:41.569Z,3.19
2022-12-12T02:52:42.807Z,3.19
2022-12-12T02:53:41.582Z,3.20
2022-12-12T02:54:42.743Z,3.20
2022-12-12T02:55:42.725Z,3.20
2022-12-12T02:56:42.256Z,3.20
2022-12-12T02:57:42.758Z,3.20
2022-12-12T02:58:41.272Z,3.20
2022-12-12T02:59:42.723Z,3.19
2022-12-12T03:00:42.757Z,3.19
2022-12-12T03:01:42.639Z,3.20
2022-12-12T03:02:41.246Z,3.18
2022-12-12T03:03:42.668Z,3.17
2022-12-12T03:04:42.153Z,3.17
2022-12-12T03:05:42.128Z,3.16
2022-12-12T03:06:42.605Z,3.16
2022-12-12T03:07:42.114Z,3.15
2022-12-12T03:08:41.184Z,3.15
2022-12-12T03:09:42.217Z,3.15
2022-12-12T03:10:42.575Z,3.15
2022-12-12T03:11:42.565Z,3.16
2022-12-12T03:12:43.065Z,3.16
2022-12-12T03:13:41.124Z,3.16
2022-12-12T03:14:42.065Z,3.15
2022-12-12T03:15:41.155Z,3.15
2022-12-12T03:16:41.111Z,3.16
2022-12-12T03:17:42.021Z,3.16
2022-12-12T03:18:42.016Z,3.15
2022-12-12T03:19:41.064Z,3.16
2022-12-12T03:20:41.085Z,3.17
2022-12-12T03:21:41.743Z,3.16
2022-12-12T03:22:41.038Z,3.17
2022-12-12T03:23:42.456Z,3.17
2022-12-12T03:24:42.457Z,3.17
2022-12-12T03:25:41.047Z,3.17
2022-12-12T03:26:40.995Z,3.16
2022-12-12T03:27:42.407Z,3.16
2022-12-12T03:28:42.376Z,3.15
2022-12-12T03:29:40.949Z,3.14
2022-12-12T03:30:41.881Z,3.15
2022-12-12T03:31:41.899Z,3.15
2022-12-12T03:32:41.840Z,3.15
2022-12-12T03:33:40.947Z,3.15
2022-12-12T03:34:42.361Z,3.16
2022-12-12T03:35:40.903Z,3.17
2022-12-12T03:36:40.877Z,3.18
2022-12-12T03:37:42.363Z,3.18
2022-12-12T03:38:40.898Z,3.17
2022-12-12T03:39:40.895Z,3.18
2022-12-12T03:40:42.278Z,3.18
2022-12-12T03:41:41.758Z,3.18
2022-12-12T03:42:42.272Z,3.18
2022-12-12T03:43:40.819Z,3.17
2022-12-12T03:44:41.809Z,3.17
2022-12-12T03:45:40.898Z,3.17
2022-12-12T03:46:41.680Z,3.16
2022-12-12T03:47:40.781Z,3.16
2022-12-12T03:48:41.669Z,3.17
2022-12-12T03:49:40.741Z,3.17
2022-12-12T03:50:41.671Z,3.17
2022-12-12T03:51:40.759Z,3.17
2022-12-12T03:52:42.652Z,3.18
2022-12-12T03:53:41.621Z,3.19
2022-12-12T03:54:40.679Z,3.18
2022-12-12T03:55:40.681Z,3.18
2022-12-12T03:56:40.689Z,3.20
2022-12-12T03:57:41.650Z,3.20
2022-12-12T03:58:41.610Z,3.20
2022-12-12T03:59:42.041Z,3.20
2022-12-12T04:00:42.171Z,3.20
2022-12-12T04:01:41.224Z,3.20
2022-12-12T04:02:40.634Z,3.20
2022-12-12T04:03:42.101Z,3.20
2022-12-12T04:04:42.030Z,3.20
2022-12-12T04:05:40.598Z,3.21
2022-12-12T04:06:40.564Z,3.21
2022-12-12T04:07:40.552Z,3.22
2022-12-12T04:08:40.602Z,3.23
2022-12-12T04:09:41.981Z,3.23
2022-12-12T04:10:41.960Z,3.24
2022-12-12T04:11:40.881Z,3.23
2022-12-12T04:12:40.502Z,3.23
2022-12-12T04:13:40.513Z,3.23
2022-12-12T04:14:42.017Z,3.23
2022-12-12T04:15:40.497Z,3.23
2022-12-12T04:16:40.540Z,3.23
2022-12-12T04:17:41.913Z,3.24
2022-12-12T04:18:40.423Z,3.25
2022-12-12T04:19:40.471Z,3.26
2022-12-12T04:20:41.371Z,3.27
2022-12-12T04:21:40.448Z,3.29
2022-12-12T04:22:41.846Z,3.29
2022-12-12T04:23:41.834Z,3.29
2022-12-12T04:24:40.398Z,3.30
2022-12-12T04:25:41.837Z,3.30
2022-12-12T04:26:41.304Z,3.30
2022-12-12T04:27:40.482Z,3.29
2022-12-12T04:28:42.584Z,3.27
2022-12-12T04:29:41.286Z,3.27
2022-12-12T04:30:40.315Z,3.26
2022-12-12T04:31:40.370Z,3.25
2022-12-12T04:32:41.743Z,3.25
2022-12-12T04:33:40.344Z,3.24
2022-12-12T04:34:40.288Z,3.24
2022-12-12T04:35:42.606Z,3.23
2022-12-12T04:36:40.553Z,3.23
2022-12-12T04:37:40.248Z,3.22
2022-12-12T04:38:41.208Z,3.22
2022-12-12T04:39:40.257Z,3.20
2022-12-12T04:40:41.664Z,3.18
2022-12-12T04:41:40.506Z,3.16
2022-12-12T04:42:40.198Z,3.14
2022-12-12T04:43:40.195Z,3.13
2022-12-12T04:44:40.174Z,3.11
2022-12-12T04:45:41.684Z,3.10
2022-12-12T04:46:41.074Z,3.07
2022-12-12T04:47:42.066Z,3.06
2022-12-12T04:48:43.933Z,3.06
2022-12-12T04:49:41.073Z,3.04
2022-12-12T04:50:40.137Z,3.03
2022-12-12T04:51:40.146Z,3.02
2022-12-12T04:52:41.538Z,3.00
2022-12-12T04:53:41.005Z,2.98
2022-12-12T04:54:40.077Z,2.97
2022-12-12T04:55:40.086Z,2.97
2022-12-12T04:56:40.167Z,2.96
2022-12-12T04:57:40.122Z,2.96
2022-12-12T04:58:40.994Z,2.97
2022-12-12T04:59:40.166Z,2.96
2022-12-12T05:00:40.378Z,2.96
2022-12-12T05:01:41.427Z,2.96
2022-12-12T05:02:41.031Z,2.94
2022-12-12T05:03:40.997Z,2.92
2022-12-12T05:04:41.426Z,2.91
2022-12-12T05:05:41.407Z,2.90
2022-12-12T05:06:41.399Z,2.90
2022-12-12T05:07:41.400Z,2.90
2022-12-12T05:08:40.898Z,2.91
2022-12-12T05:09:41.408Z,2.91
2022-12-12T05:10:40.852Z,2.92
2022-12-12T05:11:40.867Z,2.93
2022-12-12T05:12:41.380Z,2.94
2022-12-12T05:13:41.324Z,2.94
2022-12-12T05:14:40.843Z,2.94
2022-12-12T05:15:44.933Z,2.95
2022-12-12T05:16:40.841Z,2.96
2022-12-12T05:17:40.781Z,2.99
2022-12-12T05:18:41.268Z,2.99
2022-12-12T05:19:40.162Z,2.98
2022-12-12T05:20:41.247Z,2.98
2022-12-12T05:21:41.310Z,2.98
2022-12-12T05:22:40.743Z,3.00
2022-12-12T05:23:40.718Z,3.00
2022-12-12T05:24:41.218Z,2.99
2022-12-12T05:25:40.701Z,2.99
2022-12-12T05:26:41.164Z,2.98
2022-12-12T05:27:40.709Z,2.98
2022-12-12T05:28:41.170Z,2.96
2022-12-12T05:29:40.639Z,2.94
2022-12-12T05:30:41.173Z,2.93
2022-12-12T05:31:41.134Z,2.90
2022-12-12T05:32:41.141Z,2.89
2022-12-12T05:33:41.175Z,2.87
2022-12-12T05:34:41.105Z,2.86
2022-12-12T05:35:41.105Z,2.84
2022-12-12T05:36:39.671Z,2.83
2022-12-12T05:37:40.573Z,2.83
2022-12-12T05:38:40.609Z,2.83
2022-12-12T05:39:40.702Z,2.84
2022-12-12T05:40:41.033Z,2.84
2022-12-12T05:41:40.547Z,2.85
2022-12-12T05:42:41.962Z,2.85
2022-12-12T05:43:41.004Z,2.85
2022-12-12T05:44:40.503Z,2.85
2022-12-12T05:45:40.591Z,2.85
2022-12-12T05:46:40.975Z,2.85
2022-12-12T05:47:40.453Z,2.84
2022-12-12T05:48:40.933Z,2.84
2022-12-12T05:49:40.433Z,2.85
2022-12-12T05:50:40.913Z,2.85
2022-12-12T05:51:40.485Z,2.86
2022-12-12T05:52:40.894Z,2.87
2022-12-12T05:53:43.073Z,2.88
2022-12-12T05:54:40.874Z,2.90
2022-12-12T05:55:40.875Z,2.90
2022-12-12T05:56:41.270Z,2.91
2022-12-12T05:57:40.363Z,2.91
2022-12-12T05:58:40.853Z,2.91
2022-12-12T05:59:40.327Z,2.91
2022-12-12T06:00:40.304Z,2.91
2022-12-12T06:01:40.294Z,2.91
2022-12-12T06:02:40.354Z,2.91
2022-12-12T06:03:40.829Z,2.91
2022-12-12T06:04:40.794Z,2.91
2022-12-12T06:05:40.757Z,2.90
2022-12-12T06:06:40.284Z,2.89
2022-12-12T06:07:40.250Z,2.86
2022-12-12T06:08:40.774Z,2.86
2022-12-12T06:09:40.350Z,2.86
2022-12-12T06:10:40.740Z,2.86
2022-12-12T06:11:40.216Z,2.86
2022-12-12T06:12:40.686Z,2.86
2022-12-12T06:13:40.213Z,2.86
2022-12-12T06:14:39.313Z,2.87
2022-12-12T06:15:41.241Z,2.87
2022-12-12T06:16:40.206Z,2.87
2022-12-12T06:17:40.635Z,2.86
2022-12-12T06:18:39.659Z,2.86
2022-12-12T06:19:40.155Z,2.86
2022-12-12T06:20:40.155Z,2.86
2022-12-12T06:21:40.658Z,2.85
2022-12-12T06:22:40.589Z,2.84
2022-12-12T06:23:40.623Z,2.84
2022-12-12T06:24:40.567Z,2.84
2022-12-12T06:25:40.067Z,2.83
2022-12-12T06:26:40.577Z,2.83
2022-12-12T06:27:40.070Z,2.83
2022-12-12T06:28:40.530Z,2.82
2022-12-12T06:29:40.028Z,2.83
2022-12-12T06:30:39.540Z,2.83
2022-12-12T06:31:40.045Z,2.83
2022-12-12T06:32:40.477Z,2.84
2022-12-12T06:33:39.998Z,2.84
2022-12-12T06:34:40.459Z,2.85
2022-12-12T06:35:40.438Z,2.85
2022-12-12T06:36:39.974Z,2.85
2022-12-12T06:37:39.925Z,2.85
2022-12-12T06:38:39.941Z,2.84
2022-12-12T06:39:40.066Z,2.84
2022-12-12T06:40:40.399Z,2.84
2022-12-12T06:41:39.880Z,2.84
2022-12-12T06:42:44.653Z,2.82
2022-12-12T06:43:41.366Z,2.83
2022-12-12T06:44:40.362Z,2.82
2022-12-12T06:45:40.419Z,2.81
2022-12-12T06:46:40.387Z,2.80
2022-12-12T06:47:39.819Z,2.79
2022-12-12T06:48:40.323Z,2.80
2022-12-12T06:49:40.290Z,2.78
2022-12-12T06:50:40.300Z,2.77
2022-12-12T06:51:39.876Z,2.76
2022-12-12T06:52:39.650Z,2.75
2022-12-12T06:53:40.261Z,2.74
2022-12-12T06:54:40.250Z,2.73
2022-12-12T06:55:40.255Z,2.72
2022-12-12T06:56:46.226Z,2.70
2022-12-12T06:57:40.763Z,2.68
2022-12-12T06:58:39.740Z,2.67
2022-12-12T06:59:39.743Z,2.66
2022-12-12T07:00:40.234Z,2.65
2022-12-12T07:01:39.711Z,2.63
2022-12-12T07:02:39.731Z,2.63
2022-12-12T07:03:39.771Z,2.62
2022-12-12T07:04:39.671Z,2.59
2022-12-12T07:05:40.132Z,2.57
2022-12-12T07:06:40.644Z,2.55
2022-12-12T07:07:40.134Z,2.53
2022-12-12T07:08:40.104Z,2.51
2022-12-12T07:09:39.703Z,2.49
2022-12-12T07:10:40.111Z,2.48
2022-12-12T07:11:40.100Z,2.47
2022-12-12T07:12:39.642Z,2.45
2022-12-12T07:13:39.579Z,2.44
2022-12-12T07:14:39.561Z,2.42
2022-12-12T07:15:40.622Z,2.41
2022-12-12T07:16:40.033Z,2.40
2022-12-12T07:17:40.206Z,2.39
2022-12-12T07:18:40.004Z,2.38
2022-12-12T07:19:39.610Z,2.38
2022-12-12T07:20:39.984Z,2.36
2022-12-12T07:21:40.097Z,2.34
2022-12-12T07:22:39.492Z,2.34
2022-12-12T07:23:40.455Z,2.35
2022-12-12T07:24:40.455Z,2.36
2022-12-12T07:25:39.431Z,2.38
2022-12-12T07:26:39.925Z,2.39
2022-12-12T07:27:40.579Z,2.40
2022-12-12T07:28:39.394Z,2.43
2022-12-12T07:29:39.404Z,2.46
2022-12-12T07:30:39.895Z,2.49
2022-12-12T07:31:40.381Z,2.52
2022-12-12T07:32:40.375Z,2.54
2022-12-12T07:33:44.177Z,2.58
2022-12-12T07:34:40.352Z,2.60
2022-12-12T07:35:40.335Z,2.63
2022-12-12T07:36:40.333Z,2.66
2022-12-12T07:37:39.296Z,2.67
2022-12-12T07:38:39.316Z,2.69
2022-12-12T07:39:39.096Z,2.71
2022-12-12T07:40:39.813Z,2.73
2022-12-12T07:41:40.857Z,2.75
2022-12-12T07:42:39.768Z,2.76
2022-12-12T07:43:43.392Z,2.77
2022-12-12T07:44:39.255Z,2.78
2022-12-12T07:45:39.259Z,2.79
2022-12-12T07:46:39.807Z,2.81
2022-12-12T07:47:39.213Z,2.84
2022-12-12T07:48:39.687Z,2.86
2022-12-12T07:49:39.044Z,2.87
2022-12-12T07:50:39.686Z,2.89
2022-12-12T07:51:42.946Z,2.92
2022-12-12T07:52:40.680Z,2.93
2022-12-12T07:53:39.631Z,2.94
2022-12-12T07:54:39.164Z,2.96
2022-12-12T07:55:39.637Z,2.96
2022-12-12T07:56:39.668Z,2.96
2022-12-12T07:57:39.628Z,2.96
2022-12-12T07:58:39.099Z,2.97
2022-12-12T07:59:39.572Z,2.97
2022-12-12T08:00:39.081Z,2.97
2022-12-12T08:01:39.209Z,2.97
2022-12-12T08:02:38.822Z,2.98
2022-12-12T08:03:38.141Z,3.00
2022-12-12T08:04:39.566Z,3.01
2022-12-12T08:05:39.053Z,3.02
2022-12-12T08:06:39.518Z,3.03
2022-12-12T08:07:39.513Z,3.05
2022-12-12T08:08:39.523Z,3.06
2022-12-12T08:09:39.000Z,3.08
2022-12-12T08:10:39.460Z,3.08
2022-12-12T08:11:44.632Z,3.09
2022-12-12T08:12:39.959Z,3.09
2022-12-12T08:13:38.947Z,3.09
2022-12-12T08:14:38.910Z,3.10
2022-12-12T08:15:39.029Z,3.11
2022-12-12T08:16:38.890Z,3.11
2022-12-12T08:17:38.947Z,3.12
2022-12-12T08:18:39.438Z,3.12
2022-12-12T08:19:38.865Z,3.14
2022-12-12T08:20:38.853Z,3.15
2022-12-12T08:21:39.360Z,3.15
2022-12-12T08:22:38.866Z,3.15
2022-12-12T08:23:38.836Z,3.17
2022-12-12T08:24:38.858Z,3.19
2022-12-12T08:25:39.810Z,3.20
2022-12-12T08:26:38.812Z,3.21
2022-12-12T08:27:39.291Z,3.22
2022-12-12T08:28:38.792Z,3.21
2022-12-12T08:29:39.776Z,3.22
2022-12-12T08:30:38.771Z,3.23
2022-12-12T08:31:39.807Z,3.24
2022-12-12T08:32:39.236Z,3.24
2022-12-12T08:33:39.348Z,3.24
2022-12-12T08:34:39.244Z,3.25
2022-12-12T08:35:39.303Z,3.26
2022-12-12T08:36:38.691Z,3.26
2022-12-12T08:37:39.171Z,3.27
2022-12-12T08:38:38.663Z,3.27
2022-12-12T08:39:38.721Z,3.28
2022-12-12T08:40:38.675Z,3.28
2022-12-12T08:41:38.686Z,3.30
2022-12-12T08:42:39.179Z,3.31
2022-12-12T08:43:38.616Z,3.33
2022-12-12T08:44:38.607Z,3.35
2022-12-12T08:45:39.123Z,3.35
2022-12-12T08:46:39.157Z,3.37
2022-12-12T08:47:39.074Z,3.38
2022-12-12T08:48:39.062Z,3.40
2022-12-12T08:49:40.323Z,3.39
2022-12-12T08:50:39.553Z,3.39
2022-12-12T08:51:39.617Z,3.39
2022-12-12T08:52:39.058Z,3.41
2022-12-12T08:53:39.533Z,3.43
2022-12-12T08:54:39.505Z,3.44
2022-12-12T08:55:39.519Z,3.45
2022-12-12T08:56:39.489Z,3.47
2022-12-12T08:57:39.539Z,3.48
2022-12-12T08:58:39.466Z,3.51
2022-12-12T08:59:39.473Z,3.53
2022-12-12T09:00:39.466Z,3.54
2022-12-12T09:01:39.182Z,3.57
2022-12-12T09:02:39.572Z,3.58
2022-12-12T09:03:38.954Z,3.60
2022-12-12T09:04:38.915Z,3.61
2022-12-12T09:05:39.412Z,3.63
2022-12-12T09:06:39.419Z,3.65
2022-12-12T09:07:39.405Z,3.68
2022-12-12T09:08:39.417Z,3.69
2022-12-12T09:09:39.516Z,3.72
2022-12-12T09:10:39.348Z,3.74
2022-12-12T09:11:38.837Z,3.77
2022-12-12T09:12:41.832Z,3.79
2022-12-12T09:13:39.361Z,3.81
2022-12-12T09:14:39.336Z,3.82
2022-12-12T09:15:39.326Z,3.84
2022-12-12T09:16:39.345Z,3.85
2022-12-12T09:17:38.288Z,3.87
2022-12-12T09:18:44.609Z,3.89
2022-12-12T09:19:39.267Z,3.88
2022-12-12T09:20:38.741Z,3.89
2022-12-12T09:21:39.359Z,3.90
2022-12-12T09:22:38.209Z,3.92
2022-12-12T09:23:39.218Z,3.92
2022-12-12T09:24:38.129Z,3.93
2022-12-12T09:25:42.553Z,3.95
2022-12-12T09:26:38.197Z,3.96
2022-12-12T09:27:38.212Z,3.97
2022-12-12T09:28:38.659Z,3.97
2022-12-12T09:29:38.659Z,3.97
2022-12-12T09:30:38.621Z,3.97
2022-12-12T09:31:38.685Z,3.97
2022-12-12T09:32:38.130Z,3.97
2022-12-12T09:33:38.692Z,3.98
2022-12-12T09:34:39.088Z,3.99
2022-12-12T09:35:38.096Z,4.00
2022-12-12T09:36:39.079Z,4.02
2022-12-12T09:37:39.067Z,4.03
2022-12-12T09:38:39.064Z,4.05
2022-12-12T09:39:39.068Z,4.06
2022-12-12T09:40:39.037Z,4.07
2022-12-12T09:41:38.021Z,4.09
2022-12-12T09:42:39.011Z,4.09
2022-12-12T09:43:37.981Z,4.11
2022-12-12T09:44:38.991Z,4.11
2022-12-12T09:45:39.032Z,4.12
2022-12-12T09:46:38.963Z,4.12
2022-12-12T09:47:38.961Z,4.12
2022-12-12T09:48:38.954Z,4.11
2022-12-12T09:49:43.278Z,4.10
2022-12-12T09:50:38.551Z,4.10
2022-12-12T09:51:38.401Z,4.10
2022-12-12T09:52:37.912Z,4.10
2022-12-12T09:53:37.892Z,4.09
2022-12-12T09:54:37.228Z,4.08
2022-12-12T09:55:38.356Z,4.09
2022-12-12T09:56:38.384Z,4.11
2022-12-12T09:57:38.339Z,4.12
2022-12-12T09:58:42.137Z,4.13
2022-12-12T09:59:39.824Z,4.14
2022-12-12T10:00:38.398Z,4.14
2022-12-12T10:01:38.336Z,4.15
2022-12-12T10:02:36.896Z,4.17
2022-12-12T10:03:38.279Z,4.20
2022-12-12T10:04:38.244Z,4.22
2022-12-12T10:05:38.256Z,4.24
2022-12-12T10:06:38.584Z,4.26
2022-12-12T10:07:38.216Z,4.29
2022-12-12T10:08:36.853Z,4.31
2022-12-12T10:09:39.115Z,4.33
2022-12-12T10:10:36.780Z,4.34
2022-12-12T10:11:39.097Z,4.36
2022-12-12T10:12:36.764Z,4.38
2022-12-12T10:13:38.200Z,4.39
2022-12-12T10:14:36.775Z,4.39
2022-12-12T10:15:38.167Z,4.39
2022-12-12T10:16:37.710Z,4.39
2022-12-12T10:17:37.628Z,4.41
2022-12-12T10:18:38.124Z,4.41
2022-12-12T10:19:38.105Z,4.42
2022-12-12T10:20:38.632Z,4.43
2022-12-12T10:21:36.643Z,4.45
2022-12-12T10:22:38.084Z,4.46
2022-12-12T10:23:38.065Z,4.47
2022-12-12T10:24:38.066Z,4.49
2022-12-12T10:25:36.615Z,4.49
2022-12-12T10:26:38.094Z,4.49
2022-12-12T10:27:36.589Z,4.49
2022-12-12T10:28:38.013Z,4.48
2022-12-12T10:29:41.539Z,4.48
2022-12-12T10:30:36.553Z,4.47
2022-12-12T10:31:38.033Z,4.47
2022-12-12T10:32:38.012Z,4.47
2022-12-12T10:33:37.465Z,4.47
2022-12-12T10:34:36.536Z,4.48
2022-12-12T10:35:39.168Z,4.49
2022-12-12T10:36:38.452Z,4.49
2022-12-12T10:37:38.402Z,4.49
2022-12-12T10:38:38.020Z,4.49
2022-12-12T10:39:36.469Z,4.49
2022-12-12T10:40:37.927Z,4.50
2022-12-12T10:41:36.927Z,4.51
2022-12-12T10:42:36.924Z,4.53
2022-12-12T10:43:36.421Z,4.55
2022-12-12T10:44:37.889Z,4.56
2022-12-12T10:45:36.417Z,4.58
2022-12-12T10:46:37.965Z,4.57
2022-12-12T10:47:37.810Z,4.58
2022-12-12T10:48:37.800Z,4.58
2022-12-12T10:49:37.799Z,4.58
2022-12-12T10:50:37.506Z,4.58
2022-12-12T10:51:36.343Z,4.58
2022-12-12T10:52:36.329Z,4.59
2022-12-12T10:53:37.757Z,4.60
2022-12-12T10:54:37.742Z,4.61
2022-12-12T10:55:37.729Z,4.60
2022-12-12T10:56:37.721Z,4.61
2022-12-12T10:57:36.262Z,4.62
2022-12-12T10:58:37.713Z,4.62
2022-12-12T10:59:37.158Z,4.61
2022-12-12T11:00:37.676Z,4.61
2022-12-12T11:02:09.816Z,4.59
2022-12-12T11:02:37.394Z,4.58
2022-12-12T11:03:36.246Z,4.56
2022-12-12T11:04:37.130Z,4.55
2022-12-12T11:05:37.103Z,4.55
2022-12-12T11:06:37.097Z,4.56
2022-12-12T11:07:37.128Z,4.57
2022-12-12T11:08:36.703Z,4.58
2022-12-12T11:09:37.056Z,4.58
2022-12-12T11:10:36.132Z,4.57
2022-12-12T11:11:37.042Z,4.59
2022-12-12T11:12:36.137Z,4.60
2022-12-12T11:13:37.053Z,4.61
2022-12-12T11:14:36.132Z,4.62
2022-12-12T11:15:36.986Z,4.64
2022-12-12T11:16:37.579Z,4.64
2022-12-12T11:17:36.911Z,4.64
2022-12-12T11:18:37.001Z,4.64
2022-12-12T11:19:36.107Z,4.65
2022-12-12T11:20:37.443Z,4.65
2022-12-12T11:21:36.013Z,4.66
2022-12-12T11:22:36.926Z,4.65
2022-12-12T11:23:37.417Z,4.65
2022-12-12T11:24:35.996Z,4.66
2022-12-12T11:25:36.993Z,4.64
2022-12-12T11:26:35.964Z,4.64
2022-12-12T11:27:35.934Z,4.63
2022-12-12T11:28:35.947Z,4.63
2022-12-12T11:29:36.844Z,4.63
2022-12-12T11:30:36.838Z,4.63
2022-12-12T11:31:36.967Z,4.63
2022-12-12T11:32:37.338Z,4.63
2022-12-12T11:33:35.885Z,4.65
2022-12-12T11:34:35.873Z,4.65
2022-12-12T11:35:35.891Z,4.66
2022-12-12T11:36:35.879Z,4.69
2022-12-12T11:37:35.878Z,4.71
2022-12-12T11:38:35.846Z,4.73
2022-12-12T11:39:36.785Z,4.76
2022-12-12T11:40:37.745Z,4.78
2022-12-12T11:41:37.756Z,4.80
2022-12-12T11:42:36.695Z,4.82
2022-12-12T11:43:36.744Z,4.84
2022-12-12T11:44:36.679Z,4.83
2022-12-12T11:45:35.820Z,4.82
2022-12-12T11:46:36.681Z,4.82
2022-12-12T11:47:36.664Z,4.80
2022-12-12T11:48:37.176Z,4.80
2022-12-12T11:49:35.870Z,4.78
2022-12-12T11:50:36.636Z,4.78
2022-12-12T11:51:36.638Z,4.77
2022-12-12T11:52:35.746Z,4.76
2022-12-12T11:53:36.606Z,4.75
2022-12-12T11:54:35.937Z,4.73
2022-12-12T11:55:37.150Z,4.70
2022-12-12T11:56:37.641Z,4.68
2022-12-12T11:57:36.560Z,4.65
2022-12-12T11:58:35.710Z,4.65
2022-12-12T11:59:36.540Z,4.64
2022-12-12T12:00:35.598Z,4.64
2022-12-12T12:01:36.558Z,4.65
2022-12-12T12:02:35.602Z,4.65
2022-12-12T12:03:35.683Z,4.65
2022-12-12T12:04:37.013Z,4.64
2022-12-12T12:05:35.565Z,4.63
2022-12-12T12:06:36.172Z,4.63
2022-12-12T12:07:36.270Z,4.64
2022-12-12T12:08:35.609Z,4.63
2022-12-12T12:09:36.424Z,4.63
2022-12-12T12:10:36.428Z,4.63
2022-12-12T12:11:36.423Z,4.61
2022-12-12T12:12:35.491Z,4.60
2022-12-12T12:13:36.518Z,4.59
2022-12-12T12:14:35.470Z,4.60
2022-12-12T12:15:36.869Z,4.60
2022-12-12T12:16:35.509Z,4.61
2022-12-12T12:17:36.378Z,4.62
2022-12-12T12:18:36.843Z,4.64
2022-12-12T12:19:35.556Z,4.66
2022-12-12T12:20:36.971Z,4.66
2022-12-12T12:21:35.415Z,4.68
2022-12-12T12:22:36.291Z,4.69
2022-12-12T12:23:41.238Z,4.70
2022-12-12T12:24:37.466Z,4.71
2022-12-12T12:25:36.305Z,4.71
2022-12-12T12:26:36.281Z,4.74
2022-12-12T12:27:35.320Z,4.75
2022-12-12T12:28:36.743Z,4.76
2022-12-12T12:29:37.244Z,4.78
2022-12-12T12:30:36.323Z,4.79
2022-12-12T12:31:36.706Z,4.80
2022-12-12T12:32:36.272Z,4.80
2022-12-12T12:33:36.275Z,4.81
2022-12-12T12:34:36.680Z,4.82
2022-12-12T12:35:36.662Z,4.83
2022-12-12T12:36:36.701Z,4.84
2022-12-12T12:37:35.223Z,4.84
2022-12-12T12:38:36.686Z,4.85
2022-12-12T12:39:35.250Z,4.85
2022-12-12T12:40:37.060Z,4.86
2022-12-12T12:41:36.594Z,4.86
2022-12-12T12:42:36.245Z,4.87
2022-12-12T12:43:36.073Z,4.88
2022-12-12T12:44:36.584Z,4.89
2022-12-12T12:45:36.098Z,4.90
2022-12-12T12:46:37.037Z,4.90
2022-12-12T12:47:36.549Z,4.89
2022-12-12T12:48:36.094Z,4.88
2022-12-12T12:49:37.467Z,4.89
2022-12-12T12:50:36.025Z,4.90
2022-12-12T12:51:36.525Z,4.89
2022-12-12T12:52:36.532Z,4.90
2022-12-12T12:53:36.526Z,4.89
2022-12-12T12:54:36.605Z,4.89
2022-12-12T12:55:36.975Z,4.89
2022-12-12T12:56:40.916Z,4.89
2022-12-12T12:57:36.042Z,4.89
2022-12-12T12:58:36.489Z,4.89
2022-12-12T12:59:36.461Z,4.89
2022-12-12T13:00:35.455Z,4.88
2022-12-12T13:01:35.945Z,4.87
2022-12-12T13:02:35.988Z,4.87
2022-12-12T13:03:36.382Z,4.85
2022-12-12T13:04:36.407Z,4.84
2022-12-12T13:05:36.357Z,4.83
2022-12-12T13:06:36.401Z,4.81
2022-12-12T13:07:40.522Z,4.78
2022-12-12T13:08:35.939Z,4.78
2022-12-12T13:09:36.356Z,4.78
2022-12-12T13:10:36.316Z,4.78
2022-12-12T13:11:35.824Z,4.80
2022-12-12T13:12:36.316Z,4.79
2022-12-12T13:13:35.805Z,4.81
2022-12-12T13:14:35.767Z,4.81
2022-12-12T13:15:35.856Z,4.81
2022-12-12T13:16:36.295Z,4.82
2022-12-12T13:17:35.748Z,4.81
2022-12-12T13:18:45.136Z,4.80